Aviation Digital Data Service (ADDS)

Output produced by METARs form (0746 UTC 18 February 2019)
found at http://www.aviationweather.gov/metar/data/
 
Forecast for: ZSHC (HANGZHOU/JIANQIA, CN)
Text: TAF ZSHC 180301Z 1806/1906 11003MPS 3000 -RA BR SCT006 BKN020 TX12/1806Z TN04/1821Z
Forecast period: 0600 UTC 18 February 2019 to 0600 UTC 19 February 2019
Forecast type: FROM: standard forecast or significant change
Winds: from the ESE (110 degrees) at 7 MPH (6 knots; 3.1 m/s)
Visibility: 1.86 miles (2.99 km)
Ceiling: 2000 feet AGL
Clouds: scattered clouds at 600 feet AGL
broken clouds at 2000 feet AGL
Weather: -RA BR  (light rain, mist)
Text: TEMPO 1806/1812 2000 RA
Forecast period: 0600 to 1200 UTC 18 February 2019
Forecast type: TEMPORARY: The following changes expected for less than half the time period
Visibility: 1.24 miles (2.00 km)
Ceiling: unknown
Clouds: missing
Weather: RA  (moderate rain)